M I D A S
Marine Information and Data Acquisition System
Tripno 257 of the Zeeleeuw from 2001-12-07 06:15:00 to 2001-12-07 16:30:00
Back to CruiseResearch ActivitiesStationsMapUnderway DataData graphs

EquipmentUnitsComment
TimeDGPSUTC
LatitudeDGPSDM.mWGS84
LongitudeDGPSDM.mWGS84
TemperatureSBE03/SBE38deg celciusITS90
ConductivitySBE21S/mITS90
SalinitySBE21 Practical Salinity Units
ChlorophylAChelsea fluorimeterg/lCalibrated in Aceton
Missing or incorrect values are displayed as -999
Sea surface data collected by the RV Zeeleeuw from 2001-12-07 06:15:00 to 2001-12-07 16:30:00
Time Latitude Longitude Temperature Conductivity Salinity ChlorophylA
2001-12-07 08:31:59 51°15.808 2°54.434 10.671304 3.44409 31.17331  
2001-12-07 08:33:00 51°16.038 2°54.351 10.717711 3.469036 31.491833  
2001-12-07 08:34:00 51°16.212 2°54.321 10.836825 3.476349 31.591124  
2001-12-07 08:34:59 51°16.262 2°54.318 11.041363 3.468836 31.544469  
2001-12-07 08:36:00 51°16.263 2°54.302 10.807831 3.450303 31.376573  
2001-12-07 08:36:59 51°16.283 2°54.291 10.810935 3.463026 31.515668  
2001-12-07 08:37:59 51°16.287 2°54.282 10.881448 3.455512 31.43766  
2001-12-07 08:38:59 51°16.295 2°54.27 10.387838 3.472343 31.613363  
2001-12-07 08:39:59 51°16.306 2°54.257 10.688246 3.462525 31.517721  
2001-12-07 08:40:59 51°16.318 2°54.244 10.84076 3.47094 31.60775  
2001-12-07 08:41:59 51°16.332 2°54.235 10.685555 3.47094 31.609177  
2001-12-07 08:42:59 51°16.345 2°54.227 10.295457 3.465731 31.564362  
2001-12-07 08:43:59 51°16.357 2°54.221 10.825155 3.468837 31.602896  
2001-12-07 08:45:05 51°16.369 2°54.217 10.092086 3.468837 31.608608  
2001-12-07 08:46:04 51°16.379 2°54.213 10.814455 3.467034 31.596081  
2001-12-07 08:47:04 51°16.389 2°54.21 11.115964 3.467234 31.598822  
2001-12-07 08:48:05 51°16.397 2°54.207 10.769415 3.467535 31.61115  
2001-12-07 08:49:05 51°16.406 2°54.204 10.736728 3.469138 31.627371  
2001-12-07 08:50:05 51°16.415 2°54.201 9.538111 3.467535 31.611865  
2001-12-07 08:51:04 51°16.438 2°54.207 9.539197 3.471241 31.642939  
2001-12-07 08:52:05 51°16.497 2°54.138 9.558655 3.47054 31.632983  
2001-12-07 08:53:04 51°16.572 2°53.947 9.562716 3.472844 31.643424  
2001-12-07 08:54:04 51°16.665 2°53.741 9.495443 3.472343 31.661247  
2001-12-07 08:55:05 51°16.758 2°53.526 9.538536 3.463528 31.606334  
2001-12-07 08:56:05 51°16.854 2°53.318 9.561157 3.45381 31.497235  
2001-12-07 08:57:05 51°16.945 2°53.107 9.551808 3.469338 31.640844  
2001-12-07 08:58:05 51°17.045 2°52.906 9.589766 3.480358 31.711553  
2001-12-07 08:59:06 51°17.146 2°52.699 9.603735 3.49308 31.810833  
2001-12-07 09:00:05 51°17.252 2°52.509 9.673205 3.502297 31.887503  
2001-12-07 09:01:05 51°17.375 2°52.336 9.736622 3.517425 31.99073  
2001-12-07 09:02:05 51°17.504 2°52.175 9.708926 3.52564 32.06074  
2001-12-07 09:03:05 51°17.628 2°52.008 9.70902 3.532553 32.113956  
2001-12-07 09:04:05 51°17.759 2°51.854 9.706382 3.53105 32.104557  
2001-12-07 09:05:04 51°17.877 2°51.711 9.71505 3.529047 32.085042  
2001-12-07 09:06:05 51°17.989 2°51.58 9.723152 3.532453 32.105002  
2001-12-07 09:07:05 51°18.099 2°51.458 9.700162 3.523135 32.01455  
2001-12-07 09:08:04 51°18.2 2°51.321 9.74651 3.527343 32.075057  
2001-12-07 09:09:05 51°18.308 2°51.187 9.744862 3.533455 32.123062  
2001-12-07 09:10:05 51°18.418 2°51.079 9.710056 3.534657 32.139542  
2001-12-07 09:11:04 51°18.467 2°51.026 9.760728 3.534457 32.128845  
2001-12-07 09:12:04 51°18.498 2°51.035 9.727297 3.537162 32.148211  
2001-12-07 09:13:05 51°18.514 2°51.038 9.738458 3.53626 32.137662  
2001-12-07 09:14:05 51°18.513 2°51.083 9.71929 3.542271 32.18606  
2001-12-07 09:15:05 51°18.521 2°51.072 9.738882 3.53626 32.145611  
2001-12-07 09:16:04 51°18.529 2°51.062 9.740247 3.543373 32.194292  
2001-12-07 09:17:05 51°18.537 2°51.057 9.733184 3.538364 32.153122  
2001-12-07 09:18:05 51°18.54 2°51.062 9.688618 3.53105 32.117562  
2001-12-07 09:19:05 51°18.538 2°51.067 9.691869 3.529447 32.103533  
2001-12-07 09:20:04 51°18.528 2°51.069 9.701105 3.53095 32.112936  
2001-12-07 09:21:05 51°18.513 2°51.069 9.701293 3.532253 32.12248  
2001-12-07 09:22:05 51°18.496 2°51.071 9.732948 3.53085 32.109034  
2001-12-07 09:23:05 51°18.482 2°51.069 9.731441 3.531551 32.119732  
2001-12-07 09:24:04 51°18.474 2°51.063 9.722587 3.520831 32.014331  
2001-12-07 09:25:06 51°18.467 2°51.053 9.677966 3.529047 32.100206  
2001-12-07 09:26:05 51°18.467 2°51.036 9.683056 3.526843 32.082992  
2001-12-07 09:27:06 51°18.463 2°51.019 9.701246 3.526842 32.067832  
2001-12-07 09:28:05 51°18.456 2°51.006 9.689042 3.521633 32.014501  
2001-12-07 09:29:05 51°18.451 2°50.996 9.679946 3.528646 32.095435  
2001-12-07 09:30:05 51°18.447 2°50.989 9.680983 3.526542 32.07851  
2001-12-07 09:31:05 51°18.446 2°50.985 9.694744 3.527744 32.086325  
2001-12-07 09:32:05 51°18.447 2°50.983 9.684376 3.526241 32.068255  
2001-12-07 09:33:06 51°18.449 2°50.982 9.762517 3.527945 32.08546  
2001-12-07 09:34:05 51°18.45 2°50.983 9.68645 3.523737 32.042234  
2001-12-07 09:35:05 51°18.45 2°50.982 9.687816 3.524438 32.048596  
2001-12-07 09:36:05 51°18.448 2°50.98 9.671697 3.524839 32.061302  
2001-12-07 09:37:05 51°18.446 2°50.975 9.664909 3.522635 32.050577  
2001-12-07 09:38:04 51°18.442 2°50.971 9.65812 3.520431 32.03191  
2001-12-07 09:39:05 51°18.432 2°51.026 9.662033 3.518828 32.017153  
2001-12-07 09:40:04 51°18.505 2°51.054 9.672875 3.516223 31.988669  
2001-12-07 09:41:05 51°18.561 2°50.849 9.664626 3.516423 31.97989  
2001-12-07 09:42:05 51°18.595 2°50.581 9.713731 3.519028 32.016294  
2001-12-07 09:43:05 51°18.637 2°50.31 9.757103 3.540668 32.177109  
2001-12-07 09:44:05 51°18.678 2°50.039 9.823024 3.554294 32.273375  
2001-12-07 09:45:05 51°18.72 2°49.769 9.810137 3.556999 32.29777  
2001-12-07 09:46:05 51°18.763 2°49.498 9.758233 3.552891 32.266466  
2001-12-07 09:47:05 51°18.807 2°49.225 9.74618 3.548483 32.23646  
2001-12-07 09:48:05 51°18.85 2°48.954 9.724848 3.543974 32.199637  
2001-12-07 09:49:04 51°18.894 2°48.687 9.705581 3.537162 32.146766  
2001-12-07 09:50:04 51°18.937 2°48.418 9.678485 3.528946 32.088361  
2001-12-07 09:51:05 51°18.978 2°48.142 9.641993 3.522234 32.03787  
2001-12-07 09:52:04 51°19.015 2°47.874 9.594533 3.501796 31.873095  
2001-12-07 09:53:06 51°19.054 2°47.594 9.523797 3.478955 31.67948  
2001-12-07 09:54:05 51°19.093 2°47.327 9.541086 3.461624 31.548495  
2001-12-07 09:55:06 51°19.133 2°47.048 9.531167 3.462225 31.550296  
2001-12-07 09:56:05 51°19.175 2°46.779 9.563896 3.464329 31.568722  
2001-12-07 09:57:05 51°19.218 2°46.505 9.556388 3.471642 31.624121  
2001-12-07 09:58:05 51°19.263 2°46.23 9.545857 3.472944 31.646582  
2001-12-07 09:59:05 51°19.307 2°45.955 9.64619 3.484765 31.745392  
2001-12-07 10:00:06 51°19.353 2°45.676 9.613219 3.495284 31.826658  
2001-12-07 10:01:05 51°19.396 2°45.407 9.682019 3.505303 31.912855  
2001-12-07 10:02:05 51°19.441 2°45.131 9.6848 3.510512 31.910137  
2001-12-07 10:03:05 51°19.485 2°44.852 9.685884 3.508208 31.891901  
2001-12-07 10:04:06 51°19.528 2°44.572 9.685601 3.508007 31.889878  
2001-12-07 10:05:06 51°19.57 2°44.298 9.689654 3.507707 31.882538  
2001-12-07 10:06:06 51°19.612 2°44.021 9.686026 3.510111 31.903938  
2001-12-07 10:07:06 51°19.656 2°43.742 9.674619 3.510712 31.918624  
2001-12-07 10:08:05 51°19.7 2°43.467 9.699032 3.515922 31.969073  
2001-12-07 10:09:05 51°19.745 2°43.188 9.728333 3.523035 32.020019  
2001-12-07 10:10:05 51°19.792 2°42.911 9.776872 3.532152 32.081771  
2001-12-07 10:11:06 51°19.842 2°42.635 10.018326 3.547781 32.188895  
2001-12-07 10:12:05 51°19.888 2°42.373 10.111567 3.606192 32.551457  
2001-12-07 10:13:06 51°19.923 2°42.151 10.104497 3.617414 32.615462  
2001-12-07 10:14:06 51°19.944 2°42.008 10.032109 3.611703 32.590807  
2001-12-07 10:15:06 51°19.954 2°41.977 10.045937 3.603588 32.542701  
2001-12-07 10:16:06 51°19.977 2°41.955 10.031547 3.603587 32.536903  
2001-12-07 10:17:06 51°19.982 2°41.931 10.027421 3.602085 32.529061  
2001-12-07 10:18:06 51°20.001 2°41.936 10.063323 3.601984 32.530229  
2001-12-07 10:19:06 51°20.008 2°41.924 10.022545 3.601083 32.524073  
2001-12-07 10:20:06 51°20.015 2°41.913 10.027187 3.600682 32.520774  
2001-12-07 10:21:05 51°20.023 2°41.907 10.071522 3.601183 32.519284  
2001-12-07 10:22:06 51°20.031 2°41.905 10.02714 3.601483 32.520853  
2001-12-07 10:23:06 51°20.037 2°41.907 10.025405 3.601383 32.523469  
2001-12-07 10:24:05 51°20.044 2°41.912 10.027703 3.600782 32.519606  
2001-12-07 10:25:05 51°20.051 2°41.923 10.026859 3.601083 32.521175  
2001-12-07 10:26:06 51°20.048 2°41.957 10.02489 3.600481 32.515864  
2001-12-07 10:27:06 51°20.012 2°42.007 10.020389 3.599479 32.509426  
2001-12-07 10:28:06 51°19.967 2°42.042 10.021842 3.59988 32.515623  
2001-12-07 10:29:05 51°19.956 2°42.031 10.026109 3.600582 32.521217  
2001-12-07 10:30:06 51°19.946 2°42.014 10.027328 3.600982 32.522343  
2001-12-07 10:31:05 51°19.939 2°41.993 10.02789 3.603387 32.545763  
2001-12-07 10:32:06 51°19.934 2°41.966 10.028359 3.603688 32.545882  
2001-12-07 10:33:05 51°19.925 2°41.934 10.030187 3.603588 32.544876  
2001-12-07 10:34:06 51°19.81 2°41.838 10.070773 3.604389 32.550749  
2001-12-07 10:35:05 51°19.652 2°41.73 10.127438 3.610501 32.588895  
2001-12-07 10:36:05 51°19.464 2°41.655 10.082953 3.623626 32.654528  
2001-12-07 10:37:06 51°19.241 2°41.581 9.830407 3.583849 32.417549  
2001-12-07 10:38:06 51°19.023 2°41.496 9.799882 3.5577 32.259238  
2001-12-07 10:39:05 51°18.807 2°41.396 9.781155 3.550186 32.211691  
2001-12-07 10:40:05 51°18.586 2°41.296 9.79673 3.547881 32.198572  
2001-12-07 10:41:06 51°18.363 2°41.196 9.834545 3.553592 32.235189  
2001-12-07 10:42:06 51°18.142 2°41.097 9.869332 3.560706 32.279398  
2001-12-07 10:43:05 51°17.924 2°41.001 9.899402 3.568721 32.329018  
2001-12-07 10:44:05 51°17.7 2°40.904 9.943449 3.578239 32.397315  
2001-12-07 10:45:06 51°17.474 2°40.808 9.981461 3.591364 32.490937  
2001-12-07 10:46:05 51°17.254 2°40.712 10.018185 3.599179 32.542662  
2001-12-07 10:47:06 51°17.027 2°40.617 10.079721 3.610902 32.621961  
2001-12-07 10:48:06 51°16.802 2°40.529 10.152476 3.634349 32.788933  
2001-12-07 10:49:06 51°16.578 2°40.439 10.176289 3.648477 32.883958  
2001-12-07 10:50:06 51°16.353 2°40.351 10.180967 3.653086 32.907533  
2001-12-07 10:51:04 51°16.136 2°40.268 10.164407 3.653988 32.921681  
2001-12-07 10:52:06 51°15.905 2°40.178 10.126642 3.644369 32.863197  
2001-12-07 10:53:05 51°15.71 2°40.102 10.079721 3.627936 32.741337  
2001-12-07 10:54:05 51°15.657 2°40.087 10.125518 3.623326 32.69581  
2001-12-07 10:55:07 51°15.654 2°40.064 10.080564 3.623126 32.694526  
2001-12-07 10:56:07 51°15.648 2°40.055 10.081079 3.623226 32.699168  
2001-12-07 10:57:06 51°15.649 2°40.059 10.090026 3.623627 32.700281  
2001-12-07 10:58:06 51°15.663 2°40.067 10.099814 3.62523 32.711276  
2001-12-07 10:59:06 51°15.687 2°40.074 10.114845 3.622525 32.685586  
2001-12-07 11:00:06 51°15.709 2°40.079 10.11152 3.620621 32.675205  
2001-12-07 11:01:06 51°15.724 2°40.077 10.078081 3.620922 32.681857  
2001-12-07 11:02:06 51°15.735 2°40.072 10.115125 3.620922 32.676768  
2001-12-07 11:03:06 51°15.744 2°40.065 10.075598 3.620922 32.678222  
2001-12-07 11:04:06 51°15.752 2°40.056 10.076348 3.620822 32.677943  
2001-12-07 11:05:06 51°15.758 2°40.044 10.075879 3.620421 32.673921  
2001-12-07 11:06:06 51°15.764 2°40.03 10.114845 3.621022 32.67632  
2001-12-07 11:07:06 51°15.781 2°40.046 10.080892 3.621122 32.677325  
2001-12-07 11:08:06 51°15.831 2°40.083 10.080611 3.622224 32.685477  
2001-12-07 11:09:05 51°15.886 2°40.075 10.114985 3.622825 32.692237  
2001-12-07 11:10:06 51°15.938 2°40.028 10.073631 3.622926 32.696151  
2001-12-07 11:11:06 51°15.986 2°39.96 10.072413 3.622325 32.6923  
2001-12-07 11:12:05 51°16.033 2°39.88 10.080002 3.625932 32.727048  
2001-12-07 11:13:06 51°16.079 2°39.786 10.107728 3.633948 32.79293  
2001-12-07 11:14:06 51°16.119 2°39.685 10.144194 3.642765 32.855874  
2001-12-07 11:15:06 51°16.157 2°39.581 10.152851 3.647475 32.875372  
2001-12-07 11:16:05 51°16.199 2°39.486 10.159167 3.649779 32.894828  
2001-12-07 11:17:06 51°16.251 2°39.404 10.16436 3.651783 32.910538  
2001-12-07 11:18:06 51°16.305 2°39.332 10.191396 3.651182 32.895022  
2001-12-07 11:19:06 51°16.355 2°39.249 10.2 3.657896 32.940393  
2001-12-07 11:20:05 51°16.4 2°39.155 10.204395 3.658697 32.944043  
2001-12-07 11:21:05 51°16.441 2°39.05 10.211127 3.658998 32.942673  
2001-12-07 11:22:05 51°16.48 2°38.94 10.220991 3.659499 32.937473  
2001-12-07 11:23:06 51°16.523 2°38.831 10.233797 3.6603 32.938933  
2001-12-07 11:24:06 51°16.574 2°38.725 10.253703 3.66521 32.975677  
2001-12-07 11:25:05 51°16.635 2°38.609 10.292843 3.668216 32.993352  
2001-12-07 11:26:05 51°16.702 2°38.484 10.269773 3.669719 32.998901  
2001-12-07 11:27:05 51°16.771 2°38.357 10.278787 3.673126 33.023491  
2001-12-07 11:28:06 51°16.815 2°38.204 10.281729 3.673727 33.025124  
2001-12-07 11:29:06 51°16.809 2°38.048 10.322252 3.675932 33.04133  
2001-12-07 11:30:05 51°16.787 2°37.894 10.293029 3.676333 33.043877  
2001-12-07 11:31:04 51°16.75 2°37.749 10.339004 3.678838 33.058701  
2001-12-07 11:32:06 51°16.711 2°37.592 10.356266 3.688257 33.110467  
2001-12-07 11:33:05 51°16.682 2°37.436 10.434772 3.691263 33.128804  
2001-12-07 11:34:05 51°16.653 2°37.276 10.363263 3.691363 33.129074  
2001-12-07 11:35:06 51°16.633 2°37.117 10.368813 3.692466 33.13716  
2001-12-07 11:36:06 51°16.609 2°37.004 10.379352 3.693668 33.143321  
2001-12-07 11:37:06 51°16.582 2°36.922 10.394878 3.69447 33.140365  
2001-12-07 11:38:06 51°16.56 2°36.854 10.395764 3.697175 33.15276  
2001-12-07 11:39:06 51°16.54 2°36.795 10.393713 3.696273 33.14522  
2001-12-07 11:40:06 51°16.52 2°36.732 10.398095 3.696273 33.146681  
2001-12-07 11:41:06 51°16.506 2°36.651 10.393293 3.696674 33.151412  
2001-12-07 11:42:06 51°16.522 2°36.568 10.398607 3.697275 33.157413  
2001-12-07 11:43:06 51°16.568 2°36.556 10.414688 3.699179 33.167646  
2001-12-07 11:44:06 51°16.595 2°36.671 10.411519 3.700081 33.167147  
2001-12-07 11:45:05 51°16.608 2°36.774 10.405506 3.698578 33.153612  
2001-12-07 11:46:05 51°16.607 2°36.774 10.403875 3.698979 33.163454  
2001-12-07 11:47:06 51°16.611 2°36.765 10.403828 3.697576 33.149456  
2001-12-07 11:48:06 51°16.617 2°36.758 10.401311 3.698177 33.155455  
2001-12-07 11:49:06 51°16.624 2°36.757 10.396743 3.697075 33.149568  
2001-12-07 11:50:06 51°16.63 2°36.764 10.432535 3.696774 33.15022  
2001-12-07 11:51:06 51°16.637 2°36.778 10.398095 3.696674 33.147759  
2001-12-07 11:52:06 51°16.643 2°36.787 10.394458 3.697576 33.153107  
2001-12-07 11:53:05 51°16.646 2°36.787 10.394878 3.697075 33.15176  
2001-12-07 11:54:06 51°16.646 2°36.783 10.392454 3.696975 33.15076  
2001-12-07 11:55:06 51°16.644 2°36.774 10.426664 3.695672 33.13922  
2001-12-07 11:56:05 51°16.62 2°36.809 10.39898 3.695371 33.13768  
2001-12-07 11:57:06 51°16.482 2°36.75 10.383642 3.696474 33.147951  
2001-12-07 11:58:05 51°16.295 2°36.554 10.376694 3.694269 33.133251  
2001-12-07 11:59:06 51°16.111 2°36.297 10.424335 3.695271 33.146906  
2001-12-07 12:00:06 51°15.933 2°36.037 10.399027 3.697175 33.154221  
2001-12-07 12:01:06 51°15.752 2°35.78 10.412637 3.699079 33.162993  
2001-12-07 12:02:06 51°15.572 2°35.522 10.424614 3.701985 33.181758  
2001-12-07 12:03:06 51°15.391 2°35.263 10.437567 3.704691 33.198516  
2001-12-07 12:04:06 51°15.21 2°35.005 10.492938 3.708098 33.219339  
2001-12-07 12:05:06 51°15.031 2°34.747 10.403642 3.710703 33.229966  
2001-12-07 12:06:06 51°14.853 2°34.487 10.392827 3.700682 33.184108  
2001-12-07 12:07:06 51°14.675 2°34.224 10.492193 3.710402 33.226239  
2001-12-07 12:08:06 51°14.499 2°33.954 10.496475 3.717317 33.268101  
2001-12-07 12:09:06 51°14.323 2°33.686 10.504202 3.71872 33.275498  
2001-12-07 12:10:06 51°14.146 2°33.416 10.516394 3.721626 33.29567  
2001-12-07 12:11:06 51°13.969 2°33.146 10.529841 3.724031 33.30719  
2001-12-07 12:12:06 51°13.791 2°32.876 10.53026 3.728039 33.332471  
2001-12-07 12:13:06 51°13.613 2°32.605 10.52919 3.727638 33.336527  
2001-12-07 12:14:06 51°13.435 2°32.334 10.489772 3.725233 33.329407  
2001-12-07 12:15:06 51°13.257 2°32.063 10.529329 3.721626 33.309569  
2001-12-07 12:16:06 51°13.08 2°31.79 10.476457 3.721425 33.309767  
2001-12-07 12:17:06 51°12.903 2°31.517 10.460112 3.71872 33.299638  
2001-12-07 12:18:06 51°12.726 2°31.244 10.446279 3.717217 33.298564  
2001-12-07 12:19:06 51°12.549 2°30.972 10.417671 3.715714 33.298956  
2001-12-07 12:20:06 51°12.372 2°30.698 10.428062 3.711505 33.281144  
2001-12-07 12:21:06 51°12.194 2°30.424 10.378559 3.707497 33.262383  
2001-12-07 12:22:06 51°12.017 2°30.149 10.384714 3.705693 33.252433  
2001-12-07 12:23:06 51°11.84 2°29.873 10.404621 3.706896 33.252715  
2001-12-07 12:24:06 51°11.664 2°29.594 10.411239 3.710403 33.270141  
2001-12-07 12:25:05 51°11.498 2°29.312 10.444602 3.711605 33.272618  
2001-12-07 12:26:06 51°11.321 2°29.027 10.495312 3.716515 33.293034  
2001-12-07 12:27:06 51°11.149 2°28.746 10.480228 3.716515 33.291569  
2001-12-07 12:28:06 51°11.004 2°28.506 10.502992 3.72353 33.325612  
2001-12-07 12:29:07 51°10.967 2°28.391 10.501828 3.724833 33.33493  
2001-12-07 12:30:06 51°11.023 2°28.347 10.506342 3.724432 33.328009  
2001-12-07 12:31:05 51°11.038 2°28.533 10.50732 3.726135 33.336926  
2001-12-07 12:32:06 51°11.011 2°28.603 10.500944 3.725434 33.335063  
2001-12-07 12:33:05 51°11.015 2°28.605 10.50476 3.724031 33.32914  
2001-12-07 12:34:06 51°11.024 2°28.622 10.536586 3.724432 33.330937  
2001-12-07 12:35:05 51°11.031 2°28.645 10.494893 3.724532 33.332667  
2001-12-07 12:36:05 51°11.034 2°28.672 10.49466 3.723831 33.327875  
2001-12-07 12:37:06 51°11.04 2°28.698 10.488422 3.72343 33.325345  
2001-12-07 12:38:06 51°11.048 2°28.725 10.488795 3.722929 33.325478  
2001-12-07 12:39:06 51°11.053 2°28.757 10.49196 3.722929 33.326943  
2001-12-07 12:40:06 51°11.053 2°28.793 10.490471 3.72373 33.33127  
2001-12-07 12:41:06 51°11.053 2°28.829 10.48926 3.722929 33.325478  
2001-12-07 12:42:05 51°11.056 2°28.864 10.485908 3.722628 33.323947  
2001-12-07 12:43:04 51°11.063 2°28.892 10.524444 3.722327 33.322415  
2001-12-07 12:44:05 51°11.079 2°28.909 10.481346 3.722728 33.324945  
2001-12-07 12:45:04 51°11.099 2°28.914 10.479018 3.721726 33.31862  
2001-12-07 12:46:06 51°11.119 2°28.923 10.474781 3.721225 33.315091  
2001-12-07 12:47:04 51°11.128 2°28.935 10.475712 3.721626 33.319818  
2001-12-07 12:48:04 51°11.131 2°28.944 10.471661 3.720524 33.315422  
2001-12-07 12:49:06 51°11.131 2°28.95 10.477435 3.720724 33.316687  
2001-12-07 12:50:06 51°11.129 2°28.951 10.478599 3.721025 33.31529  
2001-12-07 12:51:05 51°11.125 2°28.95 10.474921 3.720724 33.313758  
2001-12-07 12:52:05 51°11.121 2°28.945 10.518674 3.721025 33.313825  
2001-12-07 12:53:05 51°11.119 2°28.957 10.482603 3.721526 33.314426  
2001-12-07 12:54:06 51°11.18 2°29.148 10.472639 3.721526 33.315158  
2001-12-07 12:55:05 51°11.287 2°29.417 10.513137 3.720023 33.306766  
2001-12-07 12:56:05 51°11.389 2°29.704 10.47371 3.720824 33.314757  
2001-12-07 12:57:06 51°11.491 2°30 10.477016 3.720423 33.308565  
2001-12-07 12:58:06 51°11.591 2°30.289 10.502898 3.720123 33.307765  
2001-12-07 12:59:06 51°11.688 2°30.578 10.451496 3.71892 33.3031  
2001-12-07 13:00:06 51°11.787 2°30.867 10.435937 3.716115 33.289037  
2001-12-07 13:01:06 51°11.885 2°31.157 10.463745 3.713108 33.271502  
2001-12-07 13:02:06 51°11.985 2°31.448 10.45457 3.710302 33.25303  
2001-12-07 13:03:05 51°12.081 2°31.733 10.383269 3.706294 33.22987  
2001-12-07 13:04:05 51°12.18 2°32.024 10.366061 3.700983 33.200274  
2001-12-07 13:05:05 51°12.279 2°32.317 10.398048 3.698177 33.183965  
2001-12-07 13:06:05 51°12.38 2°32.61 10.337745 3.695372 33.164721  
2001-12-07 13:07:06 51°12.473 2°32.914 10.292843 3.690963 33.140423  
2001-12-07 13:08:06 51°12.562 2°33.214 10.320478 3.67974 33.077222  
2001-12-07 13:09:06 51°12.654 2°33.514 10.256973 3.66992 33.016975  
2001-12-07 13:10:06 51°12.745 2°33.816 10.205237 3.664208 32.978789  
2001-12-07 13:11:05 51°12.834 2°34.11 10.204161 3.663307 32.977063  
2001-12-07 13:12:06 51°12.926 2°34.414 10.197148 3.663106 32.980171  
2001-12-07 13:13:05 51°13 2°34.72 10.195277 3.662004 32.972053  
2001-12-07 13:14:06 51°13.078 2°35.036 10.192518 3.662305 32.979449  
2001-12-07 13:15:06 51°13.157 2°35.345 10.184053 3.663908 32.995511  
2001-12-07 13:16:06 51°13.236 2°35.654 10.167635 3.66 32.969514  
2001-12-07 13:17:06 51°13.318 2°35.962 10.15636 3.655892 32.942955  
2001-12-07 13:18:05 51°13.412 2°36.254 10.145691 3.652585 32.920035  
2001-12-07 13:19:06 51°13.496 2°36.563 10.125518 3.648878 32.892357  
2001-12-07 13:20:06 51°13.551 2°36.884 10.109132 3.64016 32.823177  
2001-12-07 13:21:05 51°13.523 2°37.201 10.10548 3.63515 32.783131  
2001-12-07 13:22:05 51°13.406 2°37.475 10.110912 3.637455 32.803332  
2001-12-07 13:23:06 51°13.265 2°37.758 10.086466 3.633647 32.768057  
2001-12-07 13:24:06 51°13.05 2°37.805 10.083515 3.626032 32.71932  
2001-12-07 13:25:06 51°12.829 2°37.668 10.046406 3.621523 32.701715  
2001-12-07 13:26:06 51°12.602 2°37.562 10.05695 3.621824 32.704005  
2001-12-07 13:27:06 51°12.373 2°37.459 10.068336 3.626633 32.739915  
2001-12-07 13:28:06 51°12.159 2°37.29 10.096629 3.63014 32.76419  
2001-12-07 13:29:06 51°11.933 2°37.178 10.116343 3.637154 32.81271  
2001-12-07 13:30:06 51°11.705 2°37.063 10.161974 3.641864 32.843179  
2001-12-07 13:31:06 51°11.476 2°36.95 10.120884 3.642665 32.848301  
2001-12-07 13:32:06 51°11.245 2°36.853 10.115921 3.641663 32.842628  
2001-12-07 13:33:06 51°11.014 2°36.763 10.184007 3.640461 32.831296  
2001-12-07 13:34:06 51°10.782 2°36.69 10.176289 3.643066 32.822433  
2001-12-07 13:35:05 51°10.558 2°36.618 10.192051 3.643667 32.808076  
2001-12-07 13:36:06 51°10.328 2°36.544 10.05681 3.635951 32.721388  
2001-12-07 13:37:06 51°10.098 2°36.467 9.982399 3.524134 31.752776  
2001-12-07 13:38:06 51°9.873 2°36.385 9.967385 3.503696 31.59127  
2001-12-07 13:39:06 51°9.647 2°36.302 10.046734 3.521529 31.758542  
2001-12-07 13:40:06 51°9.435 2°36.231 10.052077 3.570522 32.187331  
2001-12-07 13:41:06 51°9.329 2°36.258 9.987137 3.525536 31.771766  
2001-12-07 13:42:06 51°9.307 2°36.271 9.996753 3.513815 31.673522  
2001-12-07 13:43:06 51°9.303 2°36.273 10.047015 3.51111 31.65562  
2001-12-07 13:44:06 51°9.303 2°36.272 10.037266 3.51672 31.697661  
2001-12-07 13:45:06 51°9.305 2°36.267 10.027281 3.523432 31.749294  
2001-12-07 13:46:06 51°9.306 2°36.262 10.031547 3.540865 31.916  
2001-12-07 13:47:06 51°9.309 2°36.255 10.02864 3.540865 31.919554  
2001-12-07 13:48:07 51°9.313 2°36.249 10.021326 3.534754 31.865459  
2001-12-07 13:49:06 51°9.316 2°36.242 10.050202 3.53806 31.894305  
2001-12-07 13:50:05 51°9.32 2°36.234 10.041063 3.552387 32.016421  
2001-12-07 13:51:06 51°9.324 2°36.227 10.031828 3.549882 31.996328  
2001-12-07 13:52:05 51°9.328 2°36.22 10.028687 3.541667 31.926869  
2001-12-07 13:53:06 51°9.332 2°36.213 10.033141 3.546977 31.977201  
2001-12-07 13:54:06 51°9.337 2°36.207 10.079346 3.548981 31.995134  
2001-12-07 13:55:05 51°9.342 2°36.201 10.045562 3.554892 32.04721  
2001-12-07 13:56:06 51°9.36 2°36.212 10.044859 3.558098 32.073612  
2001-12-07 13:57:05 51°9.39 2°36.242 10.066322 3.555694 32.050243  
2001-12-07 13:58:05 51°9.423 2°36.278 10.064448 3.566514 32.145041  
2001-12-07 13:59:05 51°9.451 2°36.309 10.064213 3.568718 32.162824  
2001-12-07 14:00:05 51°9.474 2°36.336 10.06665 3.562106 32.10375  
2001-12-07 14:01:06 51°9.494 2°36.36 10.074005 3.563108 32.110926  
2001-12-07 14:02:06 51°9.512 2°36.381 10.041766 3.551485 32.010955  
2001-12-07 14:03:06 51°9.529 2°36.4 10.045703 3.544272 31.947976  
2001-12-07 14:04:06 51°9.545 2°36.42 10.047015 3.548981 31.988011  
2001-12-07 14:05:05 51°9.56 2°36.44 10.080423 3.555293 32.045516  
2001-12-07 14:06:06 51°9.576 2°36.462 10.045656 3.552988 32.023866  
2001-12-07 14:07:05 51°9.599 2°36.51 10.045515 3.555894 32.049397  
2001-12-07 14:08:05 51°9.669 2°36.768 10.082531 3.560002 32.086251  
2001-12-07 14:09:06 51°9.738 2°37.1 10.110443 3.580441 32.268051  
2001-12-07 14:10:05 51°9.807 2°37.422 10.084358 3.57954 32.263324  
2001-12-07 14:11:05 51°9.88 2°37.753 10.071382 3.580742 32.278958  
2001-12-07 14:12:04 51°9.951 2°38.08 10.066228 3.589158 32.360416  
2001-12-07 14:13:06 51°10.025 2°38.424 10.082391 3.588557 32.36375  
2001-12-07 14:14:07 51°10.098 2°38.76 10.011386 3.587756 32.381654  
2001-12-07 14:15:06 51°10.17 2°39.087 9.994314 3.582847 32.361957  
2001-12-07 14:16:07 51°10.245 2°39.428 9.982915 3.579541 32.341022  
2001-12-07 14:17:07 51°10.318 2°39.764 9.957389 3.57924 32.347382  
2001-12-07 14:18:06 51°10.388 2°40.095 9.926219 3.572728 32.306482  
2001-12-07 14:19:07 51°10.462 2°40.437 9.90626 3.564612 32.249423  
2001-12-07 14:20:06 51°10.534 2°40.768 9.874078 3.559402 32.214328  
2001-12-07 14:21:07 51°10.611 2°41.11 9.853868 3.548281 32.131971  
2001-12-07 14:22:06 51°10.682 2°41.44 9.844278 3.542771 32.090183  
2001-12-07 14:23:06 51°10.755 2°41.779 9.83826 3.539865 32.066692  
2001-12-07 14:24:07 51°10.832 2°42.13 9.847287 3.538663 32.060337  
2001-12-07 14:25:06 51°10.906 2°42.466 9.816628 3.539665 32.076169  
2001-12-07 14:26:07 51°10.981 2°42.807 9.830925 3.537261 32.058429  
2001-12-07 14:27:06 51°11.053 2°43.136 9.819544 3.538764 32.069966  
2001-12-07 14:28:07 51°11.128 2°43.479 9.820202 3.535457 32.046736  
2001-12-07 14:29:07 51°11.203 2°43.813 9.806139 3.537561 32.06361  
2001-12-07 14:30:06 51°11.274 2°44.144 9.809855 3.532151 32.022779  
2001-12-07 14:31:06 51°11.348 2°44.482 9.791884 3.532652 32.027106  
2001-12-07 14:32:06 51°11.422 2°44.818 9.764353 3.523936 31.957973  
2001-12-07 14:33:07 51°11.498 2°45.159 10.48656 3.514118 31.878407  
2001-12-07 14:34:06 51°11.57 2°45.489 10.496149 3.511613 31.851745  
2001-12-07 14:35:07 51°11.649 2°45.829 10.324912 3.506303 31.813977  
2001-12-07 14:36:07 51°11.737 2°46.158 10.815382 3.501394 31.770229  
2001-12-07 14:37:06 51°11.822 2°46.483 10.805839 3.498589 31.746246  
2001-12-07 14:38:07 51°11.915 2°46.818 10.379026 3.49358 31.705755  
2001-12-07 14:39:07 51°12.009 2°47.144 10.796109 3.490975 31.682358  
2001-12-07 14:40:06 51°12.102 2°47.465 10.855576 3.484363 31.625695  
2001-12-07 14:41:06 51°12.205 2°47.787 10.430905 3.475948 31.548009  
2001-12-07 14:42:07 51°12.314 2°48.116 10.350062 3.469737 31.491105  
2001-12-07 14:43:07 51°12.419 2°48.44 10.654265 3.466932 31.471344  
2001-12-07 14:44:06 51°12.523 2°48.755 10.825618 3.466531 31.463767  
2001-12-07 14:45:06 51°12.629 2°49.074 10.804356 3.473243 31.512255  
2001-12-07 14:46:06 51°12.733 2°49.395 10.77011 3.472241 31.505707  
2001-12-07 14:47:06 51°12.838 2°49.713 10.749573 3.463225 31.437537  
2001-12-07 14:48:06 51°12.942 2°50.032 10.671908 3.457816 31.399999  
2001-12-07 14:49:06 51°13.047 2°50.352 10.353001 3.459619 31.416051  
2001-12-07 14:50:06 51°13.153 2°50.675 10.486933 3.45471 31.382129  
2001-12-07 14:51:06 51°13.259 2°50.998 10.63109 3.446997 31.320607  
2001-12-07 14:52:06 51°13.363 2°51.321 10.546959 3.441587 31.281581  
2001-12-07 14:53:07 51°13.47 2°51.648 10.637035 3.434876 31.242081  
2001-12-07 14:54:07 51°13.577 2°51.972 10.450983 3.429567 31.214579  
2001-12-07 14:55:06 51°13.681 2°52.291 10.656262 3.421754 31.166676  
2001-12-07 14:56:06 51°13.785 2°52.616 10.388165 3.415944 31.12769  
2001-12-07 14:57:07 51°13.892 2°52.945 10.58346 3.407329 31.077908  
2001-12-07 14:58:07 51°13.997 2°53.271 10.682027 3.40162 31.038441  
2001-12-07 14:59:06 51°14.101 2°53.591 10.49466 3.397913 31.006561  
2001-12-07 15:00:07 51°14.21 2°53.924 10.323559 3.394007 30.976864  
2001-12-07 15:01:06 51°14.301 2°54.256 10.215195 3.388798 30.931166  
2001-12-07 15:02:06 51°14.355 2°54.614 10.540075 3.384992 30.900356  
2001-12-07 15:03:06 51°14.363 2°54.981 10.341944 3.384992 30.903162  
2001-12-07 15:04:06 51°14.268 2°55.247 11.36614 0.598291 4.706115  
2001-12-07 15:05:06 51°14.156 2°55.389 11.590334 0.892603 6.419737  
2001-12-07 15:06:05 51°14.051 2°55.469 11.374959 0.196126 1.147962  
2001-12-07 15:07:06 51°13.958 2°55.538 11.284233 0.075536 0.428171  
2001-12-07 15:08:06 51°13.844 2°55.621 12.079999 0.065273 0.370344  
2001-12-07 15:09:06 51°13.758 2°55.707 12.371318 0.064089 0.365657  
2001-12-07 15:10:05 51°13.719 2°55.785 12.38489 0.064089 0.366038  
2001-12-07 15:11:06 51°13.698 2°55.851 12.397373 0.064089 0.367654